Time;durP1;ratioP1;P1;durP2;ratioP2;P2;SDS_P1;SDS_P2;PMS_P1;PMS_P2;Temp;Humidity;BMP_temperature;BMP_pressure;BME280_temperature;BME280_humidity;BME280_pressure;Samples;Min_cycle;Max_cycle;Signal;HPM_P1;HPM_P2
2022/09/28 00:01:12;;;;;;;3.90;2.40;;;;;;;10.31;89.34;97752.63;1742384;81;21099;-60
2022/09/28 00:03:39;;;;;;;2.20;2.00;;;;;;;10.33;89.38;97754.61;1737907;81;21003;-59
2022/09/28 00:06:11;;;;;;;2.00;1.77;;;;;;;10.31;89.36;97755.23;1752919;80;20982;-60
2022/09/28 00:08:38;;;;;;;2.02;1.82;;;;;;;10.28;89.27;97750.25;1755543;80;21164;-60
2022/09/28 00:11:10;;;;;;;2.00;1.80;;;;;;;10.28;89.27;97750.25;1752105;79;21137;-60
2022/09/28 00:13:36;;;;;;;2.15;1.95;;;;;;;10.29;89.37;97749.30;1752789;79;20998;-60
2022/09/28 00:16:07;;;;;;;2.65;1.92;;;;;;;10.26;89.34;97739.06;1754548;80;20944;-60
2022/09/28 00:18:35;;;;;;;2.00;1.55;;;;;;;10.26;89.36;97749.50;1752935;80;21135;-60
2022/09/28 00:21:08;;;;;;;2.10;1.70;;;;;;;10.21;89.35;97752.94;1754283;80;21122;-60
2022/09/28 00:26:22;;;;;;;1.87;1.35;;;;;;;10.09;89.43;97741.19;1747137;79;21555;-61
2022/09/28 00:28:56;;;;;;;2.22;2.02;;;;;;;10.09;89.43;97741.19;1750866;81;22309;-60
2022/09/28 00:31:24;;;;;;;2.30;1.70;;;;;;;10.07;89.46;97740.48;1756171;79;21554;-61
2022/09/28 00:33:52;;;;;;;2.17;1.30;;;;;;;10.06;89.50;97747.95;1757039;79;21117;-60
2022/09/28 00:36:19;;;;;;;1.60;1.30;;;;;;;10.04;89.40;97744.63;1755463;81;21003;-61
2022/09/28 00:38:46;;;;;;;2.58;1.35;;;;;;;10.02;89.48;97747.81;1753614;79;20958;-61
2022/09/28 00:41:13;;;;;;;1.37;1.20;;;;;;;9.97;89.44;97748.66;1747715;81;21557;-61
2022/09/28 00:43:40;;;;;;;1.27;1.17;;;;;;;9.93;89.40;97743.31;1753134;80;21024;-60
2022/09/28 00:46:17;;;;;;;1.22;1.02;;;;;;;9.88;89.45;97740.22;1752881;80;21083;-61
2022/09/28 00:48:55;;;;;;;2.52;1.30;;;;;;;9.84;89.46;97728.38;1746086;79;21115;-60
2022/09/28 00:51:24;;;;;;;1.35;1.00;;;;;;;9.81;89.53;97736.43;1752315;79;20956;-60
2022/09/28 00:53:52;;;;;;;1.27;0.90;;;;;;;9.81;89.52;97732.52;1749250;79;21073;-60
2022/09/28 00:56:23;;;;;;;1.00;0.90;;;;;;;9.77;89.37;97729.77;1750625;80;21032;-60
2022/09/28 00:58:52;;;;;;;0.88;0.80;;;;;;;9.75;89.41;97729.08;1752907;79;21125;-60
2022/09/28 01:01:18;;;;;;;1.50;0.93;;;;;;;9.72;89.40;97726.68;1752917;79;20966;-60
2022/09/28 01:03:47;;;;;;;1.07;0.80;;;;;;;9.69;89.39;97720.40;1744422;81;21620;-60
2022/09/28 01:06:22;;;;;;;1.32;0.80;;;;;;;9.64;89.43;97717.68;1744879;81;21682;-60
2022/09/28 01:08:53;;;;;;;1.87;0.90;;;;;;;9.63;89.58;97715.17;1740667;81;21480;-60
2022/09/28 01:11:20;;;;;;;1.67;0.75;;;;;;;9.64;89.62;97720.77;1748822;81;21105;-60
2022/09/28 01:13:52;;;;;;;0.95;0.85;;;;;;;9.63;89.65;97716.03;1753117;80;21042;-60
2022/09/28 01:16:38;;;;;;;0.98;0.90;;;;;;;9.64;89.70;97721.59;1757435;80;21555;-60
2022/09/28 01:19:41;;;;;;;1.02;0.93;;;;;;;9.65;89.79;97715.91;1752475;80;21010;-60
2022/09/28 01:22:50;;;;;;;1.45;0.93;;;;;;;9.66;89.77;97719.33;1741537;80;21035;-60
2022/09/28 01:25:46;;;;;;;1.10;1.00;;;;;;;9.63;89.79;97718.64;1771575;79;22323;-60
2022/09/28 01:28:17;;;;;;;1.42;1.15;;;;;;;9.63;89.86;97710.82;1755287;80;21603;-60
2022/09/28 01:31:05;;;;;;;2.17;1.35;;;;;;;9.61;89.87;97710.58;1738506;81;21217;-60
2022/09/28 01:33:39;;;;;;;2.22;1.40;;;;;;;9.59;89.95;97710.67;1693745;83;21536;-59
2022/09/28 01:36:24;;;;;;;2.55;1.20;;;;;;;9.56;89.95;97709.61;1691736;83;21063;-59
2022/09/28 01:38:54;;;;;;;1.72;1.22;;;;;;;9.55;90.08;97707.11;1697132;83;21049;-60
2022/09/28 01:41:24;;;;;;;1.45;1.00;;;;;;;9.51;90.09;97709.12;1674635;84;21602;-59
2022/09/28 01:43:58;;;;;;;1.52;1.20;;;;;;;9.49;90.14;97717.99;1690369;83;20980;-60
2022/09/28 01:46:40;;;;;;;2.47;1.67;;;;;;;9.47;90.22;97709.00;1697025;82;21094;-61
2022/09/28 01:49:11;;;;;;;1.40;1.20;;;;;;;9.46;90.25;97711.23;1698610;82;21525;-61
2022/09/28 01:51:55;;;;;;;2.80;1.62;;;;;;;9.45;90.26;97710.89;1695055;82;21099;-60
2022/09/28 01:54:51;;;;;;;2.75;1.50;;;;;;;9.45;90.33;97714.80;1700155;82;21509;-61
2022/09/28 01:57:32;;;;;;;2.15;1.60;;;;;;;9.43;90.30;97708.03;1700877;82;21022;-61
2022/09/28 02:00:11;;;;;;;2.05;1.42;;;;;;;9.42;90.36;97707.21;1696273;82;21106;-61
2022/09/28 02:02:52;;;;;;;1.95;1.22;;;;;;;9.41;90.42;97704.26;1698160;82;21093;-61
2022/09/28 02:05:32;;;;;;;1.82;1.30;;;;;;;9.40;90.45;97698.67;1706478;82;21165;-60
2022/09/28 02:08:06;;;;;;;3.42;1.50;;;;;;;9.39;90.47;97699.63;1707101;82;21011;-60
2022/09/28 02:10:38;;;;;;;2.02;1.55;;;;;;;9.37;90.43;97697.60;1737232;80;20951;-60
2022/09/28 02:13:19;;;;;;;1.82;1.40;;;;;;;9.35;90.42;97695.58;1760778;80;20993;-60
2022/09/28 02:15:53;;;;;;;1.50;1.20;;;;;;;9.33;90.58;97703.52;1765668;79;20981;-61
2022/09/28 02:18:20;;;;;;;1.85;1.55;;;;;;;9.33;90.61;97701.39;1763678;79;21544;-60
2022/09/28 02:21:04;;;;;;;1.67;1.05;;;;;;;9.31;90.63;97704.09;1762445;79;20910;-61
2022/09/28 02:23:34;;;;;;;1.30;1.20;;;;;;;9.32;90.70;97695.80;1760908;79;21038;-60
2022/09/28 02:26:06;;;;;;;2.62;1.45;;;;;;;9.31;90.71;97699.36;1727866;81;21006;-60
2022/09/28 02:28:33;;;;;;;2.15;1.45;;;;;;;9.31;90.72;97701.97;1745319;80;21525;-60
2022/09/28 02:31:00;;;;;;;1.30;1.20;;;;;;;9.30;90.79;97700.30;1750457;80;21489;-60
2022/09/28 02:33:40;;;;;;;3.15;1.55;;;;;;;9.30;90.78;97701.14;1773940;80;20962;-60
2022/09/28 02:36:06;;;;;;;1.72;1.42;;;;;;;9.28;90.83;97695.69;1729162;81;21088;-61
2022/09/28 02:38:36;;;;;;;1.75;1.40;;;;;;;9.26;90.90;97697.57;1751846;79;21495;-61
2022/09/28 02:41:23;;;;;;;2.00;1.40;;;;;;;9.26;91.01;97696.27;1756427;81;21060;-61
2022/09/28 02:44:13;;;;;;;2.27;1.40;;;;;;;9.28;90.97;97699.59;1746414;79;21131;-60
2022/09/28 02:47:11;;;;;;;2.25;1.17;;;;;;;9.29;90.96;97706.45;1754046;79;21076;-61
2022/09/28 02:49:43;;;;;;;2.50;1.32;;;;;;;9.28;91.03;97691.78;1751308;81;21031;-61
2022/09/28 02:52:38;;;;;;;1.37;1.10;;;;;;;9.25;91.06;97692.02;1755524;79;20971;-60
2022/09/28 02:55:57;;;;;;;3.83;1.40;;;;;;;9.24;91.16;97689.03;1712306;82;21201;-61
2022/09/28 02:58:44;;;;;;;1.95;1.30;;;;;;;9.25;91.26;97693.31;1706284;83;21120;-60
2022/09/28 03:01:30;;;;;;;2.25;1.27;;;;;;;9.19;91.33;97692.82;1701887;83;20991;-60
2022/09/28 03:04:20;;;;;;;3.47;1.30;;;;;;;9.24;91.19;97690.33;1703423;83;22339;-61
2022/09/28 03:07:07;;;;;;;2.52;1.30;;;;;;;9.19;91.40;97688.91;1712930;82;21087;-60
2022/09/28 03:10:00;;;;;;;1.98;1.52;;;;;;;9.17;91.46;97682.98;1649899;85;21168;-61
2022/09/28 03:12:32;;;;;;;2.65;1.35;;;;;;;9.16;91.51;97686.54;1617796;87;21214;-61
2022/09/28 03:15:27;;;;;;;4.03;1.30;;;;;;;9.15;91.59;97683.56;1673718;84;21138;-61
2022/09/28 03:17:55;;;;;;;3.62;1.87;;;;;;;9.08;91.91;97686.27;1669336;84;22063;-61
2022/09/28 03:20:21;;;;;;;3.35;1.60;;;;;;;9.05;91.93;97687.80;1670679;84;21117;-61
2022/09/28 03:22:48;;;;;;;2.60;1.65;;;;;;;9.03;92.02;97685.78;1675969;84;21552;-61
2022/09/28 03:25:15;;;;;;;2.80;1.97;;;;;;;9.02;92.08;97683.27;1670775;84;21124;-61
2022/09/28 03:27:42;;;;;;;2.70;1.60;;;;;;;9.04;92.09;97685.30;1644700;85;21039;-60
2022/09/28 03:30:11;;;;;;;2.85;1.40;;;;;;;9.02;92.10;97689.33;1619363;87;21207;-60
2022/09/28 03:32:38;;;;;;;2.05;1.60;;;;;;;9.04;92.02;97682.22;1631792;85;20967;-60
2022/09/28 03:35:08;;;;;;;3.47;2.00;;;;;;;9.04;92.00;97682.22;1705142;82;20984;-60
2022/09/28 03:37:36;;;;;;;3.12;1.92;;;;;;;9.01;92.01;97685.05;1703725;82;21091;-61
2022/09/28 03:40:04;;;;;;;3.08;2.02;;;;;;;9.01;92.06;97682.45;1705180;82;21736;-61
2022/09/28 03:42:31;;;;;;;3.42;1.98;;;;;;;9.01;92.06;97678.55;1698083;82;21056;-60
2022/09/28 03:44:58;;;;;;;3.90;2.33;;;;;;;9.00;92.14;97678.20;1709368;82;21129;-60
2022/09/28 03:47:24;;;;;;;3.70;2.47;;;;;;;9.02;92.16;97680.67;1751435;79;21534;-61
2022/09/28 03:49:51;;;;;;;2.85;2.45;;;;;;;9.02;92.17;97675.02;1751061;80;20946;-61
2022/09/28 03:52:18;;;;;;;2.42;2.20;;;;;;;9.04;92.27;97679.61;1756569;80;21581;-60
2022/09/28 03:54:45;;;;;;;4.55;2.62;;;;;;;9.06;92.26;97682.95;1748320;81;21022;-60
2022/09/28 03:57:11;;;;;;;4.70;1.93;;;;;;;9.06;92.21;97680.34;1728391;82;20966;-61
2022/09/28 03:59:38;;;;;;;3.07;2.73;;;;;;;9.07;92.19;97676.78;1731760;80;21603;-60
2022/09/28 04:02:05;;;;;;;3.83;2.53;;;;;;;9.06;92.17;97671.23;1767500;80;21938;-60
2022/09/28 04:04:32;;;;;;;3.10;2.45;;;;;;;9.07;92.21;97676.78;1761008;80;21551;-61
2022/09/28 04:07:00;;;;;;;3.60;2.22;;;;;;;9.08;92.28;97673.26;1770279;79;21036;-61
2022/09/28 04:09:28;;;;;;;3.55;2.55;;;;;;;9.11;92.31;97667.82;1768224;79;21030;-61
2022/09/28 04:11:55;;;;;;;2.90;2.42;;;;;;;9.13;92.34;97670.30;1736197;81;21024;-61
2022/09/28 04:14:22;;;;;;;3.33;2.20;;;;;;;9.16;92.39;97676.13;1766995;80;21341;-61
2022/09/28 04:16:50;;;;;;;4.03;2.37;;;;;;;9.18;92.39;97665.11;1790470;78;21695;-59
2022/09/28 04:19:17;;;;;;;2.92;2.35;;;;;;;9.19;92.34;97673.30;1788950;80;21471;-60
2022/09/28 04:21:44;;;;;;;3.60;2.90;;;;;;;9.19;92.32;97666.78;1791407;79;21020;-60
2022/09/28 04:24:11;;;;;;;3.40;3.10;;;;;;;9.22;92.37;97671.41;1760954;80;21522;-60
2022/09/28 04:26:38;;;;;;;3.27;2.80;;;;;;;9.21;92.34;97667.13;1784081;80;21196;-60
2022/09/28 04:29:17;;;;;;;2.80;2.35;;;;;;;9.22;92.39;97664.91;1783905;80;21079;-60
2022/09/28 04:31:49;;;;;;;2.90;2.52;;;;;;;9.24;92.44;97659.09;1760781;80;20962;-60
2022/09/28 04:34:19;;;;;;;3.25;2.52;;;;;;;9.24;92.45;97657.30;1760359;80;20965;-59
2022/09/28 04:36:47;;;;;;;2.75;2.40;;;;;;;9.25;92.47;97652.95;1756429;81;20961;-60
2022/09/28 04:39:16;;;;;;;4.95;2.30;;;;;;;9.28;92.53;97652.24;1759358;80;21539;-60
2022/09/28 04:41:43;;;;;;;2.55;2.35;;;;;;;9.29;92.59;97642.66;1769965;79;20988;-60
2022/09/28 04:44:10;;;;;;;3.53;2.13;;;;;;;9.32;92.64;97638.52;1769814;78;21019;-60
2022/09/28 04:46:37;;;;;;;2.80;2.52;;;;;;;9.34;92.59;97639.23;1786605;79;20997;-60
2022/09/28 04:49:04;;;;;;;4.67;3.12;;;;;;;9.34;92.55;97634.02;1782303;80;21554;-60
2022/09/28 04:51:31;;;;;;;4.62;2.90;;;;;;;9.35;92.72;97630.47;1787482;78;21232;-60
2022/09/28 04:53:58;;;;;;;5.47;3.10;;;;;;;9.37;92.72;97616.86;1789458;79;20950;-60
2022/09/28 04:56:25;;;;;;;2.60;2.40;;;;;;;9.38;92.56;97628.93;1760870;80;22195;-61
2022/09/28 04:58:52;;;;;;;3.08;2.77;;;;;;;9.38;92.56;97617.20;1744478;80;21019;-60
2022/09/28 05:01:22;;;;;;;4.25;2.87;;;;;;;9.38;92.63;97619.81;1756071;81;20956;-60
2022/09/28 05:03:49;;;;;;;3.42;2.60;;;;;;;9.37;92.56;97615.56;1759244;81;21559;-60
2022/09/28 05:06:16;;;;;;;2.98;2.60;;;;;;;9.35;92.54;97633.06;1762871;80;21065;-60
2022/09/28 05:08:45;;;;;;;3.22;2.80;;;;;;;9.33;92.54;97630.59;1759382;80;20978;-60
2022/09/28 05:11:13;;;;;;;4.65;2.87;;;;;;;9.33;92.63;97629.77;1759193;80;21053;-60
2022/09/28 05:13:45;;;;;;;3.12;2.83;;;;;;;9.34;92.73;97632.25;1762647;80;22257;-60
2022/09/28 05:16:17;;;;;;;4.00;3.25;;;;;;;9.33;92.68;97632.38;1772010;79;21940;-61
2022/09/28 05:18:44;;;;;;;4.22;3.20;;;;;;;9.42;92.48;97636.88;1759306;79;20998;-61
2022/09/28 05:21:15;;;;;;;4.80;3.60;;;;;;;9.32;92.58;97634.12;1784721;78;21044;-61
2022/09/28 05:23:46;;;;;;;3.90;3.35;;;;;;;9.32;92.70;97639.81;1754648;81;21575;-61
2022/09/28 05:26:14;;;;;;;3.77;3.12;;;;;;;9.32;92.80;97638.52;1763932;80;20938;-60
2022/09/28 05:28:40;;;;;;;6.87;3.60;;;;;;;9.34;92.87;97641.84;1758462;80;21511;-61
2022/09/28 05:31:07;;;;;;;3.93;3.53;;;;;;;9.36;92.97;97634.75;1752243;79;20990;-59
2022/09/28 05:33:34;;;;;;;3.92;3.08;;;;;;;9.42;93.13;97638.19;1758133;80;21058;-59
2022/09/28 05:36:02;;;;;;;5.67;2.95;;;;;;;9.44;93.09;97640.20;1753022;81;20915;-60
2022/09/28 05:38:30;;;;;;;3.40;3.10;;;;;;;9.56;92.82;97639.27;1758792;80;21044;-60
2022/09/28 05:40:57;;;;;;;;;;;;;;;9.53;93.22;97633.47;1753845;80;21113;-59
2022/09/28 05:43:23;;;;;;;5.10;3.15;;;;;;;9.64;93.20;97635.61;1745358;80;20462;-59
2022/09/28 05:45:50;;;;;;;3.22;2.90;;;;;;;9.64;93.20;97635.61;1749354;80;20947;-60
2022/09/28 05:48:17;;;;;;;3.20;2.90;;;;;;;9.69;93.33;97637.02;1754940;80;20991;-59
2022/09/28 05:50:44;;;;;;;2.90;2.53;;;;;;;9.72;93.31;97638.08;1775360;79;21088;-59
2022/09/28 05:53:11;;;;;;;4.37;2.67;;;;;;;9.73;93.10;97621.52;1763848;80;21135;-60
2022/09/28 05:55:38;;;;;;;2.40;2.20;;;;;;;9.73;93.10;97621.52;1794272;79;20998;-59
2022/09/28 05:58:06;;;;;;;2.60;2.40;;;;;;;9.85;93.18;97638.80;1790029;79;21511;-60
2022/09/28 06:00:34;;;;;;;2.83;2.30;;;;;;;9.91;93.12;97643.53;1772458;79;20981;-59
2022/09/28 06:03:09;;;;;;;3.47;2.60;;;;;;;9.95;93.02;97639.75;1759777;80;21523;-60
2022/09/28 06:05:38;;;;;;;3.12;2.37;;;;;;;10.02;92.76;97638.30;1759293;81;20962;-60
2022/09/28 06:08:07;;;;;;;3.02;1.90;;;;;;;10.04;93.08;97639.02;1756920;80;22266;-59
2022/09/28 06:10:34;;;;;;;2.87;2.27;;;;;;;9.98;92.86;97632.99;1779556;79;21025;-60
2022/09/28 06:13:02;;;;;;;4.87;2.22;;;;;;;9.94;92.50;97632.89;1764661;79;21031;-59
2022/09/28 06:15:32;;;;;;;2.80;2.35;;;;;;;9.91;92.88;97630.50;1760280;80;21056;-59
2022/09/28 06:18:03;;;;;;;3.37;2.15;;;;;;;10.02;93.02;97630.48;1753570;81;20984;-60
2022/09/28 06:20:34;;;;;;;2.87;2.20;;;;;;;9.95;92.80;97633.23;1750466;81;21483;-60
2022/09/28 06:23:01;;;;;;;2.30;2.10;;;;;;;9.98;93.06;97631.69;1752442;81;21498;-59
2022/09/28 06:25:28;;;;;;;2.95;2.65;;;;;;;10.03;93.16;97632.16;1776454;79;20938;-59
2022/09/28 06:28:05;;;;;;;2.60;2.40;;;;;;;10.12;92.73;97624.57;1779985;79;21005;-59
2022/09/28 06:30:36;;;;;;;2.55;2.35;;;;;;;10.11;92.96;97626.36;1756115;80;21459;-61
2022/09/28 06:33:04;;;;;;;2.60;2.37;;;;;;;10.13;93.06;97617.09;1729176;81;21546;-61
2022/09/28 06:35:31;;;;;;;3.30;2.35;;;;;;;10.22;92.48;97625.48;1780077;79;20946;-61
2022/09/28 06:38:00;;;;;;;2.52;2.30;;;;;;;10.13;92.86;97624.91;1788118;79;20942;-61
2022/09/28 06:40:28;;;;;;;3.05;2.70;;;;;;;10.16;92.97;97631.19;1773067;80;21036;-60
2022/09/28 06:43:05;;;;;;;;;;;;;;;10.21;93.08;97625.14;1792650;79;21440;-61
2022/09/28 06:45:32;;;;;;;3.02;2.70;;;;;;;10.25;93.04;97627.84;1785545;79;20167;-60
2022/09/28 06:48:00;;;;;;;3.13;2.83;;;;;;;10.50;92.64;97630.22;1758944;81;21008;-60
2022/09/28 06:50:33;;;;;;;3.05;2.75;;;;;;;10.50;92.64;97630.22;1780459;80;21291;-60
2022/09/28 06:53:00;;;;;;;5.08;2.70;;;;;;;10.41;92.77;97628.32;1758839;81;21020;-61
2022/09/28 06:55:27;;;;;;;;;;;;;;;10.48;92.92;97628.20;1782719;80;21183;-60
2022/09/28 06:58:03;;;;;;;3.52;3.22;;;;;;;10.40;92.76;97628.46;1783540;79;20667;-60
2022/09/28 07:00:34;;;;;;;4.58;3.35;;;;;;;10.36;92.88;97625.24;1786506;80;20970;-60
2022/09/28 07:03:10;;;;;;;3.37;3.08;;;;;;;10.36;92.85;97626.55;1770909;79;21057;-61
2022/09/28 07:05:44;;;;;;;3.63;3.07;;;;;;;10.34;92.75;97636.30;1787663;80;21629;-61
2022/09/28 07:08:12;;;;;;;3.08;2.77;;;;;;;10.30;92.73;97625.73;1788575;79;21535;-60
2022/09/28 07:10:48;;;;;;;4.40;4.00;;;;;;;10.28;92.82;97625.05;1778336;80;20938;-61
2022/09/28 07:13:16;;;;;;;4.37;3.87;;;;;;;10.27;92.75;97625.98;1783415;80;21023;-60
2022/09/28 07:15:43;;;;;;;3.90;3.40;;;;;;;10.27;92.86;97622.07;1788573;80;20946;-61
2022/09/28 07:18:11;;;;;;;3.52;3.02;;;;;;;10.33;93.05;97628.09;1766306;80;21029;-60
2022/09/28 07:20:38;;;;;;;3.95;2.90;;;;;;;10.32;92.69;97627.76;1791320;80;21503;-60
2022/09/28 07:23:09;;;;;;;4.03;2.95;;;;;;;10.30;92.47;97626.56;1785240;80;20965;-61
2022/09/28 07:25:39;;;;;;;4.12;3.72;;;;;;;10.34;92.86;97632.39;1782181;80;21014;-61
2022/09/28 07:28:04;;;;;;;3.40;3.10;;;;;;;10.42;93.08;97630.00;1791454;79;21077;-61
2022/09/28 07:30:34;;;;;;;4.08;3.45;;;;;;;10.49;93.02;97631.14;1789918;80;20995;-61
2022/09/28 07:33:02;;;;;;;3.50;3.20;;;;;;;10.51;92.70;97631.86;1778242;80;21039;-62
2022/09/28 07:35:30;;;;;;;3.62;3.17;;;;;;;10.47;92.44;97631.77;1772558;80;21112;-60
2022/09/28 07:38:00;;;;;;;3.22;2.92;;;;;;;10.38;92.18;97631.17;1780331;80;21495;-63
2022/09/28 07:43:13;;;;;;;3.43;2.93;;;;;;;10.39;92.56;97624.17;1775394;80;20973;-62
2022/09/28 07:45:43;;;;;;;3.35;3.05;;;;;;;10.43;92.51;97627.73;1780748;80;21163;-63
2022/09/28 07:48:11;;;;;;;3.58;3.27;;;;;;;10.46;92.31;97624.88;1784048;78;20929;-61
2022/09/28 07:50:38;;;;;;;;;;;;;;;10.48;92.52;97626.89;1788025;80;21456;-60
2022/09/28 07:53:04;;;;;;;3.20;2.90;;;;;;;10.51;92.50;97624.03;1781858;80;20170;-61
2022/09/28 07:55:31;;;;;;;3.05;2.47;;;;;;;10.56;92.58;97631.95;1781151;79;20986;-62
2022/09/28 07:58:03;;;;;;;3.60;3.30;;;;;;;10.61;92.61;97631.11;1781965;80;21464;-62
2022/09/28 08:00:30;;;;;;;3.50;3.00;;;;;;;10.59;92.35;97630.43;1777599;80;20978;-60
2022/09/28 08:03:03;;;;;;;3.27;2.98;;;;;;;10.55;92.12;97635.52;1784430;80;21065;-61
2022/09/28 08:05:30;;;;;;;2.95;2.65;;;;;;;10.44;92.08;97630.68;1772548;79;21031;-62
2022/09/28 08:07:58;;;;;;;2.83;2.62;;;;;;;10.51;92.22;97639.69;1762546;81;20997;-62
2022/09/28 08:10:26;;;;;;;3.10;2.80;;;;;;;10.56;92.29;97638.48;1762542;81;21077;-62
2022/09/28 08:12:59;;;;;;;3.22;2.92;;;;;;;10.53;92.10;97635.19;1755139;81;27055;-62
2022/09/28 08:15:26;;;;;;;2.70;2.50;;;;;;;10.51;92.05;97637.08;1748347;81;21013;-62
2022/09/28 08:17:53;;;;;;;4.40;2.87;;;;;;;10.57;92.00;97637.55;1745561;80;20993;-63
2022/09/28 08:23:07;;;;;;;3.77;2.80;;;;;;;10.57;92.08;97637.55;1760639;81;21262;-62
2022/09/28 08:25:37;;;;;;;3.30;2.90;;;;;;;10.60;92.17;97637.30;1752613;81;21005;-64
2022/09/28 08:28:24;;;;;;;3.92;2.95;;;;;;;10.61;92.56;97625.89;1725561;82;21528;-62
2022/09/28 08:30:51;;;;;;;3.30;2.87;;;;;;;10.61;92.56;97625.89;1725249;81;21017;-62
2022/09/28 08:33:20;;;;;;;3.20;2.98;;;;;;;10.80;92.61;97638.29;1718703;81;20946;-63
2022/09/28 08:35:47;;;;;;;3.30;2.90;;;;;;;10.85;92.05;97638.75;1721642;81;21074;-63
2022/09/28 08:38:16;;;;;;;3.30;2.92;;;;;;;10.85;92.05;97638.75;1721357;81;20974;-62
2022/09/28 08:41:17;;;;;;;3.15;2.85;;;;;;;10.78;92.08;97635.79;1721192;81;21018;-63
2022/09/28 08:44:01;;;;;;;3.35;2.80;;;;;;;10.70;91.85;97640.83;1711032;81;21017;-62
2022/09/28 08:46:47;;;;;;;3.15;2.83;;;;;;;10.70;91.85;97640.83;1720842;81;20946;-62
2022/09/28 08:49:29;;;;;;;4.50;3.22;;;;;;;10.72;92.25;97641.52;1722768;81;22236;-63
2022/09/28 08:52:01;;;;;;;3.35;3.05;;;;;;;10.73;92.31;97640.58;1725811;82;21016;-63
2022/09/28 08:54:55;;;;;;;4.90;2.72;;;;;;;10.73;92.31;97640.58;1689870;83;20974;-61
2022/09/28 08:57:45;;;;;;;3.27;2.80;;;;;;;10.69;92.14;97632.63;1719708;83;20940;-60
2022/09/28 09:00:17;;;;;;;3.45;2.83;;;;;;;10.56;92.07;97622.82;1713733;82;21020;-61
2022/09/28 09:02:45;;;;;;;3.95;2.80;;;;;;;10.64;91.93;97645.22;1734917;82;21791;-61
2022/09/28 09:05:17;;;;;;;3.60;3.27;;;;;;;10.67;92.19;97654.09;1680500;83;21518;-61
2022/09/28 09:08:08;;;;;;;6.47;5.05;;;;;;;10.69;92.31;97660.03;1706394;83;21108;-61
2022/09/28 09:10:57;;;;;;;7.20;4.92;;;;;;;10.78;92.44;97659.28;1614938;87;21711;-61
2022/09/28 09:13:47;;;;;;;3.52;3.20;;;;;;;10.90;92.27;97660.92;1605711;88;21086;-62
2022/09/28 09:16:30;;;;;;;4.47;2.83;;;;;;;10.90;92.27;97660.92;1588621;90;21215;-61
2022/09/28 09:19:38;;;;;;;5.47;3.05;;;;;;;11.04;92.47;97656.36;1645008;84;21021;-62
2022/09/28 09:22:39;;;;;;;3.42;2.95;;;;;;;11.23;92.66;97649.97;1653559;85;21022;-61
2022/09/28 09:25:13;;;;;;;3.08;2.77;;;;;;;11.37;92.35;97645.73;1643810;84;21176;-61
2022/09/28 09:28:01;;;;;;;3.17;2.22;;;;;;;11.45;92.03;97655.52;1647129;84;21540;-62
2022/09/28 09:30:34;;;;;;;3.85;2.33;;;;;;;11.49;91.87;97652.19;1660309;84;21290;-61
2022/09/28 09:33:06;;;;;;;2.75;2.45;;;;;;;11.49;91.87;97652.19;1670184;85;21657;-61
2022/09/28 09:35:49;;;;;;;2.12;1.92;;;;;;;11.52;91.89;97651.45;1665882;85;21116;-61
2022/09/28 09:38:36;;;;;;;2.55;2.35;;;;;;;11.48;91.57;97654.44;1671373;84;21073;-61
2022/09/28 09:41:30;;;;;;;2.90;2.70;;;;;;;11.36;91.77;97638.83;1669612;84;25222;-61
2022/09/28 09:44:20;;;;;;;2.62;2.42;;;;;;;11.42;91.37;97658.39;1671859;84;21184;-61
2022/09/28 09:46:58;;;;;;;2.62;2.30;;;;;;;11.49;91.88;97658.73;1668077;85;21158;-62
2022/09/28 09:49:47;;;;;;;3.72;2.92;;;;;;;11.48;91.62;97653.13;1761150;79;21005;-61
2022/09/28 09:52:22;;;;;;;4.12;2.80;;;;;;;11.40;91.44;97657.71;1765357;80;21084;-62
2022/09/28 09:55:14;;;;;;;3.30;2.72;;;;;;;11.35;91.25;97665.92;1765228;80;20990;-61
2022/09/28 09:57:55;;;;;;;3.65;2.62;;;;;;;11.29;91.23;97654.69;1761284;80;21984;-60
2022/09/28 10:00:22;;;;;;;3.33;2.87;;;;;;;11.31;91.34;97656.66;1766325;80;21104;-60
2022/09/28 10:02:50;;;;;;;4.08;3.05;;;;;;;11.34;91.63;97659.05;1761779;80;20992;-60
2022/09/28 10:05:27;;;;;;;3.67;3.10;;;;;;;11.46;91.87;97661.59;1761148;80;20934;-60
2022/09/28 10:08:17;;;;;;;3.47;2.85;;;;;;;11.58;91.70;97656.64;1767966;80;20992;-62
2022/09/28 10:11:15;;;;;;;3.37;3.08;;;;;;;11.70;91.84;97649.54;1768186;80;21514;-62
2022/09/28 10:13:43;;;;;;;4.25;2.37;;;;;;;11.78;91.63;97650.54;1759965;79;20961;-61
2022/09/28 10:16:44;;;;;;;2.85;2.20;;;;;;;11.85;91.06;97653.02;1866344;75;22687;-61
2022/09/28 10:19:14;;;;;;;3.22;2.60;;;;;;;11.79;90.84;97656.14;1816984;78;20971;-61
2022/09/28 10:21:43;;;;;;;2.35;2.05;;;;;;;11.70;90.85;97643.83;1820230;77;21878;-61
2022/09/28 10:24:33;;;;;;;2.37;2.17;;;;;;;11.69;90.86;97644.80;1800083;77;21032;-61
2022/09/28 10:27:17;;;;;;;2.85;2.55;;;;;;;11.69;90.71;97653.95;1805559;77;21024;-61
2022/09/28 10:29:55;;;;;;;4.20;2.62;;;;;;;11.64;90.90;97660.03;1820931;77;21016;-61
2022/09/28 10:32:37;;;;;;;3.08;2.70;;;;;;;11.69;91.09;97652.64;1811484;77;21614;-62
2022/09/28 10:37:23;;;;;;;3.92;2.72;;;;;;;11.79;90.99;97650.05;1858928;75;22655;-60
2022/09/28 10:39:53;;;;;;;3.92;2.90;;;;;;;11.81;90.94;97651.58;1844549;77;21008;-59
2022/09/28 10:42:31;;;;;;;3.30;2.80;;;;;;;11.91;91.16;97654.28;1838942;76;21825;-61
2022/09/28 10:45:19;;;;;;;4.42;3.05;;;;;;;12.02;91.07;97653.37;1835899;77;21041;-60
2022/09/28 10:47:46;;;;;;;3.47;3.17;;;;;;;12.02;90.72;97658.12;1846636;75;21070;-60
2022/09/28 10:50:23;;;;;;;4.28;2.80;;;;;;;11.99;90.57;97651.02;1846447;77;21005;-60
2022/09/28 10:52:50;;;;;;;;;;;;;;;11.96;90.48;97652.11;1834920;76;20979;-61
2022/09/28 10:55:35;;;;;;;3.80;2.50;;;;;;;12.08;89.71;97652.84;1832831;75;21117;-61
2022/09/28 10:58:28;;;;;;;3.62;3.00;;;;;;;12.04;89.52;97656.66;1829606;75;20949;-60
2022/09/28 11:01:03;;;;;;;3.65;2.80;;;;;;;11.94;89.38;97658.43;1848284;75;21545;-60
2022/09/28 11:03:31;;;;;;;3.12;2.83;;;;;;;11.77;89.63;97654.13;1837545;75;20977;-62
2022/09/28 11:06:05;;;;;;;4.00;2.77;;;;;;;11.57;89.88;97656.30;1831083;75;20981;-62
2022/09/28 11:08:41;;;;;;;3.27;2.98;;;;;;;11.54;90.38;97659.14;1837103;76;21067;-62
2022/09/28 11:11:14;;;;;;;3.37;2.95;;;;;;;11.54;90.24;97659.14;1853881;76;20954;-60
2022/09/28 11:13:48;;;;;;;3.00;2.77;;;;;;;11.59;90.34;97663.51;1857661;76;21040;-60
2022/09/28 11:16:36;;;;;;;3.30;3.00;;;;;;;11.61;90.36;97662.91;1839586;75;21012;-61
2022/09/28 11:19:21;;;;;;;2.70;2.50;;;;;;;11.59;90.08;97659.59;1838311;76;21020;-60
2022/09/28 11:21:48;;;;;;;3.30;2.77;;;;;;;11.62;90.20;97658.02;1833229;75;21132;-60
2022/09/28 11:24:20;;;;;;;3.98;3.25;;;;;;;11.61;89.80;97657.68;1842083;75;21001;-60
2022/09/28 11:26:52;;;;;;;4.05;3.05;;;;;;;11.74;90.43;97657.48;1845675;75;20938;-61
2022/09/28 11:29:42;;;;;;;2.90;2.60;;;;;;;11.92;90.73;97652.49;1840522;76;21562;-61
2022/09/28 11:32:12;;;;;;;5.30;2.92;;;;;;;12.15;90.64;97656.56;1846062;76;20985;-61
2022/09/28 11:34:47;;;;;;;3.17;2.80;;;;;;;12.33;90.35;97654.64;1824008;76;22002;-61
2022/09/28 11:37:52;;;;;;;3.00;2.70;;;;;;;12.46;89.87;97651.27;1855898;76;20880;-60
2022/09/28 11:40:25;;;;;;;3.83;2.67;;;;;;;12.52;89.83;97654.69;1857150;75;20971;-61
2022/09/28 11:43:42;;;;;;;3.00;2.33;;;;;;;12.57;89.41;97657.70;1859507;77;20983;-61
2022/09/28 11:46:23;;;;;;;3.17;2.40;;;;;;;12.51;89.12;97657.76;1854652;75;21001;-61
2022/09/28 11:51:47;;;;;;;3.55;2.50;;;;;;;12.60;88.26;97658.73;1725432;81;21054;-59
2022/09/28 11:54:30;;;;;;;4.12;2.50;;;;;;;12.41;88.36;97658.73;1733568;81;21063;-61
2022/09/28 11:57:01;;;;;;;2.22;2.00;;;;;;;12.39;89.35;97658.02;1713901;83;21692;-60
2022/09/28 11:59:53;;;;;;;4.83;2.60;;;;;;;12.66;88.80;97658.22;1673240;84;21017;-61
2022/09/28 12:02:28;;;;;;;2.02;1.62;;;;;;;12.75;88.24;97656.57;1707166;83;22577;-59
2022/09/28 12:05:15;;;;;;;2.92;1.90;;;;;;;12.79;88.07;97646.64;1714420;82;21611;-62
2022/09/28 12:07:57;;;;;;;2.20;1.92;;;;;;;12.67;87.94;97647.25;1645585;85;20998;-61
2022/09/28 12:10:28;;;;;;;3.85;2.10;;;;;;;12.59;87.77;97650.55;1651959;85;21255;-60
2022/09/28 12:13:21;;;;;;;1.95;1.72;;;;;;;12.47;88.17;97650.33;1638771;85;21240;-60
2022/09/28 12:16:05;;;;;;;2.12;1.77;;;;;;;12.47;88.82;97649.02;1649779;85;22342;-60
2022/09/28 12:18:46;;;;;;;4.37;1.47;;;;;;;12.88;88.70;97653.66;1651293;85;21151;-60
2022/09/28 12:21:45;;;;;;;1.67;1.42;;;;;;;13.01;88.01;97651.61;1624673;85;21707;-60
2022/09/28 12:24:26;;;;;;;1.52;1.30;;;;;;;13.11;87.60;97650.31;1652125;85;21144;-60
2022/09/28 12:27:30;;;;;;;1.92;1.65;;;;;;;13.07;87.96;97656.28;1652210;85;21542;-60